Time;durP1;ratioP1;P1;durP2;ratioP2;P2;SDS_P1;SDS_P2;PMS_P1;PMS_P2;Temp;Humidity;BMP_temperature;BMP_pressure;BME280_temperature;BME280_humidity;BME280_pressure;Samples;Min_cycle;Max_cycle;Signal;HPM_P1;HPM_P2
2023/07/05 00:00:57;;;;;;;10.90;3.80;;;;;;;14.87;100.00;100816.63;5021151;28;20045;-81
2023/07/05 00:03:24;;;;;;;5.55;3.15;;;;;;;14.81;100.00;100799.03;5028443;28;20045;-83
2023/07/05 00:05:54;;;;;;;6.68;4.20;;;;;;;14.78;100.00;100804.41;5048734;28;20025;-81
2023/07/05 00:08:22;;;;;;;7.68;3.78;;;;;;;14.75;100.00;100799.13;5042932;28;20048;-83
2023/07/05 00:11:00;;;;;;;13.10;4.40;;;;;;;14.73;100.00;100781.50;5030894;28;20455;-81
2023/07/05 00:13:27;;;;;;;6.63;3.67;;;;;;;14.70;100.00;100769.16;5043894;28;20053;-82
2023/07/05 00:15:55;;;;;;;14.18;4.90;;;;;;;14.69;100.00;100764.75;4994338;28;20041;-79
2023/07/05 00:18:23;;;;;;;10.00;4.70;;;;;;;14.70;100.00;100757.66;5035867;28;20049;-82
2023/07/05 00:20:51;;;;;;;9.68;5.45;;;;;;;14.71;100.00;100748.81;5032834;28;20064;-81
2023/07/05 00:23:19;;;;;;;11.80;5.55;;;;;;;14.73;100.00;100752.31;5021287;28;20049;-81
2023/07/05 00:25:47;;;;;;;9.38;5.05;;;;;;;14.73;100.00;100737.28;5014247;28;20045;-83
2023/07/05 00:28:14;;;;;;;12.15;5.35;;;;;;;14.74;100.00;100728.41;5028710;28;20042;-81
2023/07/05 00:30:43;;;;;;;10.00;5.57;;;;;;;14.76;100.00;100716.03;5011206;28;20063;-82
2023/07/05 00:33:10;;;;;;;12.23;4.90;;;;;;;14.77;100.00;100704.50;5038635;28;20064;-80
2023/07/05 00:35:49;;;;;;;10.13;5.13;;;;;;;14.80;100.00;100691.19;5027677;28;20052;-81
2023/07/05 00:38:18;;;;;;;11.98;5.00;;;;;;;14.81;100.00;100684.97;5023048;28;20049;-81
2023/07/05 00:40:46;;;;;;;11.57;4.30;;;;;;;14.84;100.00;100672.56;5044631;28;20053;-81
2023/07/05 00:43:15;;;;;;;8.73;4.85;;;;;;;14.85;100.00;100675.19;5013502;28;20825;-80
2023/07/05 00:46:05;;;;;;;10.00;3.97;;;;;;;14.88;100.00;100674.28;4997368;28;20056;-83
2023/07/05 00:48:37;;;;;;;9.73;4.22;;;;;;;14.89;100.00;100668.06;5029171;28;20045;-81
2023/07/05 00:51:16;;;;;;;10.45;4.25;;;;;;;14.90;100.00;100659.22;5046031;28;20439;-80
2023/07/05 00:53:44;;;;;;;13.35;5.05;;;;;;;14.90;100.00;100656.56;5038770;28;20089;-80
2023/07/05 00:56:20;;;;;;;11.65;4.40;;;;;;;14.91;100.00;100631.75;5016140;28;20068;-81
2023/07/05 00:58:50;;;;;;;12.57;4.55;;;;;;;14.90;100.00;100622.06;5039373;28;20104;-80
2023/07/05 01:01:18;;;;;;;10.55;5.38;;;;;;;14.85;100.00;100619.47;4993231;28;20056;-81
2023/07/05 01:03:51;;;;;;;12.13;4.63;;;;;;;14.81;100.00;100616.00;5005805;28;20046;-80
2023/07/05 01:06:22;;;;;;;16.00;4.93;;;;;;;14.80;100.00;100598.34;5039896;28;20041;-81
2023/07/05 01:08:51;;;;;;;9.73;4.78;;;;;;;14.77;100.00;100589.56;4998478;28;20049;-83
2023/07/05 01:11:30;;;;;;;11.02;5.25;;;;;;;14.72;100.00;100589.63;5015449;28;20044;-81
2023/07/05 01:14:37;;;;;;;7.03;4.20;;;;;;;14.69;100.00;100583.50;5021300;28;20189;-81
2023/07/05 01:17:10;;;;;;;7.78;4.05;;;;;;;14.66;100.00;100579.16;4994215;28;20057;-80
2023/07/05 01:19:57;;;;;;;7.63;3.78;;;;;;;14.61;100.00;100581.00;5018101;28;20053;-82
2023/07/05 01:23:02;;;;;;;9.60;4.10;;;;;;;14.57;100.00;100568.69;5047011;28;20038;-81
2023/07/05 01:25:41;;;;;;;11.70;4.57;;;;;;;14.54;100.00;100550.19;5027213;28;20502;-83
2023/07/05 01:28:35;;;;;;;6.07;4.38;;;;;;;14.55;100.00;100562.53;5036301;28;20424;-81
2023/07/05 01:31:20;;;;;;;11.80;4.40;;;;;;;14.55;100.00;100546.63;5037734;28;20063;-81
2023/07/05 01:33:58;;;;;;;6.82;4.78;;;;;;;14.52;100.00;100542.25;5004645;28;20052;-82
2023/07/05 01:36:28;;;;;;;9.85;4.40;;;;;;;14.53;100.00;100537.81;5039328;28;20543;-82
2023/07/05 01:38:55;;;;;;;8.70;5.25;;;;;;;14.51;100.00;100532.53;5041683;28;20045;-80
2023/07/05 01:41:24;;;;;;;11.25;4.78;;;;;;;14.53;100.00;100536.03;5016138;28;20065;-81
2023/07/05 01:43:52;;;;;;;12.02;4.72;;;;;;;14.55;100.00;100525.41;5020857;28;20048;-81
2023/07/05 01:46:27;;;;;;;8.93;5.43;;;;;;;14.57;100.00;100518.31;5039553;28;20677;-84
2023/07/05 01:49:01;;;;;;;8.50;5.38;;;;;;;14.60;100.00;100508.53;5019710;28;20407;-84
2023/07/05 01:51:35;;;;;;;10.60;6.03;;;;;;;14.62;100.00;100498.78;5038722;28;20823;-81
2023/07/05 01:54:12;;;;;;;10.82;6.00;;;;;;;14.65;100.00;100511.13;5045804;28;20049;-80
2023/07/05 01:56:51;;;;;;;9.48;5.10;;;;;;;14.67;100.00;100511.06;5034952;28;20052;-81
2023/07/05 01:59:23;;;;;;;9.15;5.45;;;;;;;14.68;100.00;100499.56;5015718;28;20096;-83
2023/07/05 02:01:54;;;;;;;12.52;5.63;;;;;;;14.68;100.00;100500.44;5032404;28;20080;-81
2023/07/05 02:04:24;;;;;;;16.02;6.22;;;;;;;14.68;100.00;100503.09;4995513;28;20049;-81
2023/07/05 02:06:53;;;;;;;14.88;6.72;;;;;;;14.65;100.00;100489.91;5036862;28;20049;-81
2023/07/05 02:09:20;;;;;;;9.65;5.22;;;;;;;14.64;100.00;100488.16;5032646;28;20041;-80
2023/07/05 02:11:47;;;;;;;15.48;6.60;;;;;;;14.63;100.00;100489.06;5030381;28;20048;-80
2023/07/05 02:14:15;;;;;;;14.77;6.43;;;;;;;14.62;100.00;100474.03;5033788;28;20061;-80
2023/07/05 02:16:42;;;;;;;8.90;5.70;;;;;;;14.60;100.00;100465.25;5033413;28;20067;-80
2023/07/05 02:19:10;;;;;;;16.17;6.20;;;;;;;14.55;100.00;100446.72;5021729;28;20045;-80
2023/07/05 02:21:38;;;;;;;16.75;6.88;;;;;;;14.54;100.00;100425.56;5004978;28;20064;-81
2023/07/05 02:24:05;;;;;;;12.70;6.15;;;;;;;14.52;100.00;100416.78;5034691;28;20504;-81
2023/07/05 02:26:33;;;;;;;13.90;6.57;;;;;;;14.49;100.00;100401.78;5036993;28;20045;-81
2023/07/05 02:29:01;;;;;;;18.85;7.43;;;;;;;14.49;100.00;100411.53;5021616;28;20061;-80
2023/07/05 02:31:29;;;;;;;15.38;8.00;;;;;;;14.43;100.00;100386.88;5032610;28;20041;-81
2023/07/05 02:33:57;;;;;;;12.10;6.93;;;;;;;14.41;100.00;100378.06;5050478;28;20045;-81
2023/07/05 02:36:24;;;;;;;12.52;6.85;;;;;;;14.39;100.00;100366.63;4985073;28;20045;-79
2023/07/05 02:38:54;;;;;;;18.40;7.30;;;;;;;14.39;100.00;100341.91;5035971;28;20048;-79
2023/07/05 02:41:21;;;;;;;20.92;7.93;;;;;;;14.39;100.00;100341.91;5044346;28;20415;-80
2023/07/05 02:43:51;;;;;;;19.90;7.75;;;;;;;14.36;100.00;100329.56;5003151;28;20060;-82
2023/07/05 02:46:20;;;;;;;16.90;7.97;;;;;;;14.37;100.00;100334.00;5023011;28;20041;-80
2023/07/05 02:48:48;;;;;;;22.55;8.30;;;;;;;14.32;100.00;100327.03;5031809;28;20056;-80
2023/07/05 02:51:15;;;;;;;19.67;7.93;;;;;;;14.29;100.00;100313.84;4957079;28;22612;-80
2023/07/05 02:53:42;;;;;;;15.48;7.88;;;;;;;14.26;100.00;100314.78;5002519;28;20076;-81
2023/07/05 02:56:10;;;;;;;13.95;8.55;;;;;;;14.23;100.00;100307.78;5024890;28;20045;-79
2023/07/05 02:58:37;;;;;;;16.58;8.82;;;;;;;14.18;100.00;100292.88;5018049;28;20507;-80
2023/07/05 03:01:05;;;;;;;12.85;8.55;;;;;;;14.16;100.00;100287.59;5024570;28;20049;-80
2023/07/05 03:03:33;;;;;;;17.42;8.50;;;;;;;14.12;100.00;100291.22;5033514;28;20059;-81
2023/07/05 03:06:01;;;;;;;15.52;8.43;;;;;;;14.09;100.00;100283.31;5031672;28;20412;-81
2023/07/05 03:08:28;;;;;;;13.82;8.52;;;;;;;14.08;100.00;100259.50;4986641;28;20052;-80
2023/07/05 03:11:00;;;;;;;14.55;8.27;;;;;;;14.08;100.00;100263.03;5054561;28;20049;-81
2023/07/05 03:13:33;;;;;;;21.45;9.70;;;;;;;14.07;100.00;100255.13;5041972;28;20049;-81
2023/07/05 03:16:01;;;;;;;18.73;8.43;;;;;;;14.04;100.00;100234.84;5031911;28;20049;-79
2023/07/05 03:18:29;;;;;;;19.58;10.15;;;;;;;14.02;100.00;100229.59;5039018;28;20425;-82
2023/07/05 03:20:56;;;;;;;19.38;9.95;;;;;;;14.02;100.00;100218.97;5033796;28;20060;-81
2023/07/05 03:23:24;;;;;;;18.17;9.27;;;;;;;14.01;100.00;100211.09;5000425;28;20057;-79
2023/07/05 03:25:54;;;;;;;14.80;8.85;;;;;;;13.98;100.00;100214.66;5018992;28;20071;-81
2023/07/05 03:28:27;;;;;;;15.55;9.23;;;;;;;13.96;100.00;100205.88;5036881;28;20079;-81
2023/07/05 03:30:56;;;;;;;15.50;8.50;;;;;;;13.96;100.00;100200.59;5028988;28;20048;-80
2023/07/05 03:33:24;;;;;;;16.83;8.52;;;;;;;13.94;100.00;100190.94;5048337;28;20040;-81
2023/07/05 03:36:01;;;;;;;12.73;7.88;;;;;;;13.91;100.00;100183.91;5049574;28;20053;-79
2023/07/05 03:38:30;;;;;;;18.23;9.32;;;;;;;13.88;100.00;100184.00;5003181;28;21833;-81
2023/07/05 03:41:02;;;;;;;16.25;9.70;;;;;;;13.85;100.00;100181.38;5029125;28;20053;-81
2023/07/05 03:43:35;;;;;;;14.10;9.18;;;;;;;13.85;100.00;100173.44;5036639;28;20574;-80
2023/07/05 03:46:06;;;;;;;29.58;8.98;;;;;;;13.82;100.00;100161.16;5006228;28;20059;-80
2023/07/05 03:48:36;;;;;;;21.48;9.95;;;;;;;13.83;100.00;100165.53;5007214;28;20044;-81
2023/07/05 03:51:07;;;;;;;18.00;9.85;;;;;;;13.84;100.00;100153.19;5028849;28;20037;-81
2023/07/05 03:53:36;;;;;;;16.17;10.07;;;;;;;13.85;100.00;100146.97;4970981;28;20045;-82
2023/07/05 03:56:09;;;;;;;13.63;9.23;;;;;;;13.83;100.00;100147.00;5042205;28;20044;-80
2023/07/05 03:58:39;;;;;;;16.33;8.88;;;;;;;13.82;100.00;100131.16;5049051;28;20060;-81
2023/07/05 04:01:17;;;;;;;18.45;9.48;;;;;;;13.81;100.00;100130.25;5019218;28;20052;-81
2023/07/05 04:03:48;;;;;;;15.65;9.27;;;;;;;13.81;100.00;100124.09;4996711;28;20535;-80
2023/07/05 04:06:17;;;;;;;14.73;9.45;;;;;;;13.82;100.00;100115.28;5043433;28;20041;-80
2023/07/05 04:08:46;;;;;;;14.85;10.02;;;;;;;13.82;100.00;100116.13;4987359;28;20056;-81
2023/07/05 04:11:13;;;;;;;16.08;10.13;;;;;;;13.83;100.00;100101.97;5036496;28;20045;-81
2023/07/05 04:13:41;;;;;;;13.00;9.80;;;;;;;13.83;100.00;100098.47;5043438;28;20085;-82
2023/07/05 04:16:15;;;;;;;17.00;10.85;;;;;;;13.84;100.00;100113.47;5025976;28;20408;-80
2023/07/05 04:18:44;;;;;;;16.70;10.73;;;;;;;13.86;100.00;100103.69;5035762;28;20049;-80
2023/07/05 04:21:13;;;;;;;19.80;10.65;;;;;;;13.88;100.00;100093.06;5032206;28;20056;-81
2023/07/05 04:23:41;;;;;;;20.70;11.15;;;;;;;13.88;100.00;100072.75;4998025;28;20729;-82
2023/07/05 04:26:14;;;;;;;13.63;10.43;;;;;;;13.88;100.00;100090.44;5039105;28;20037;-80
2023/07/05 04:28:43;;;;;;;15.35;9.98;;;;;;;13.90;100.00;100100.06;5043958;28;20559;-80
2023/07/05 04:31:17;;;;;;;13.77;10.30;;;;;;;13.93;100.00;100102.66;5030277;28;20056;-81
2023/07/05 04:33:45;;;;;;;17.75;11.10;;;;;;;13.97;100.00;100087.53;5036119;28;20049;-81
2023/07/05 04:36:13;;;;;;;12.38;10.40;;;;;;;14.00;100.00;100098.94;5040099;28;20045;-80
2023/07/05 04:38:57;;;;;;;18.58;12.77;;;;;;;14.04;100.00;100091.81;5028601;28;20794;-81
2023/07/05 04:41:25;;;;;;;12.20;10.57;;;;;;;14.06;100.00;100100.59;5000353;28;20060;-80
2023/07/05 04:43:53;;;;;;;18.92;10.85;;;;;;;14.08;100.00;100092.59;5015122;28;20049;-81
2023/07/05 04:46:22;;;;;;;14.25;10.15;;;;;;;14.08;100.00;100101.41;5006836;28;20060;-80
2023/07/05 04:48:50;;;;;;;12.48;9.40;;;;;;;14.12;100.00;100100.47;5032986;28;20045;-81
2023/07/05 04:51:18;;;;;;;11.38;9.00;;;;;;;14.16;100.00;100107.44;5034480;28;20064;-80
2023/07/05 04:53:45;;;;;;;12.43;8.95;;;;;;;14.21;100.00;100104.66;5022172;28;20053;-83
2023/07/05 04:56:14;;;;;;;11.32;9.85;;;;;;;14.27;100.00;100115.09;4965876;28;20049;-81
2023/07/05 04:58:48;;;;;;;13.57;10.15;;;;;;;14.32;100.00;100101.75;5031180;28;20063;-79
2023/07/05 05:01:18;;;;;;;14.07;10.25;;;;;;;14.35;100.00;100102.56;5050446;28;20049;-79
2023/07/05 05:03:45;;;;;;;14.27;9.88;;;;;;;14.40;100.00;100095.38;5038185;28;20061;-80
2023/07/05 05:06:13;;;;;;;17.48;11.45;;;;;;;14.46;100.00;100083.75;5027011;28;20069;-80
2023/07/05 05:08:40;;;;;;;13.23;10.65;;;;;;;14.52;100.00;100090.69;5002302;28;20052;-80
2023/07/05 05:11:07;;;;;;;18.55;9.73;;;;;;;14.56;100.00;100084.38;4998232;28;20045;-81
2023/07/05 05:13:36;;;;;;;14.02;8.88;;;;;;;14.59;100.00;100079.91;5020896;28;20053;-81
2023/07/05 05:16:04;;;;;;;12.13;8.73;;;;;;;14.62;100.00;100078.94;5036040;28;20056;-81
2023/07/05 05:18:34;;;;;;;12.35;8.55;;;;;;;14.63;100.00;100083.34;5025630;28;20072;-79
2023/07/05 05:21:02;;;;;;;9.73;7.68;;;;;;;14.64;100.00;100081.56;5041864;28;20061;-80
2023/07/05 05:23:29;;;;;;;10.02;6.72;;;;;;;14.64;100.00;100087.72;5032060;28;20052;-80
2023/07/05 05:25:57;;;;;;;8.88;6.80;;;;;;;14.65;100.00;100076.22;4996992;28;20484;-80
2023/07/05 05:28:24;;;;;;;12.48;7.22;;;;;;;14.65;100.00;100076.22;5033757;28;20067;-79
2023/07/05 05:30:59;;;;;;;11.07;7.72;;;;;;;14.68;100.00;100080.56;5039868;28;20046;-80
2023/07/05 05:33:27;;;;;;;8.00;6.15;;;;;;;14.67;100.00;100082.38;5041181;28;20056;-80
2023/07/05 05:35:54;;;;;;;6.00;5.07;;;;;;;14.65;100.00;100083.28;5023336;28;20053;-80
2023/07/05 05:38:22;;;;;;;6.43;4.95;;;;;;;14.58;100.00;100085.25;5000689;28;20416;-80
2023/07/05 05:40:50;;;;;;;6.70;4.43;;;;;;;14.54;100.00;100086.22;4992968;28;20064;-79
2023/07/05 05:43:19;;;;;;;6.13;4.07;;;;;;;14.48;100.00;100103.13;5019096;28;20048;-80
2023/07/05 05:45:47;;;;;;;5.25;3.85;;;;;;;14.41;100.00;100102.41;5038619;28;20044;-79
2023/07/05 05:48:14;;;;;;;5.47;4.20;;;;;;;14.36;100.00;100101.63;5007030;28;20042;-79
2023/07/05 05:50:42;;;;;;;10.50;3.88;;;;;;;14.36;100.00;100103.44;5026794;28;20599;-81
2023/07/05 05:53:10;;;;;;;8.38;4.10;;;;;;;14.82;100.00;100104.97;5000854;28;20045;-81
2023/07/05 05:55:40;;;;;;;4.22;3.70;;;;;;;15.30;100.00;100101.88;5017643;28;20053;-80
2023/07/05 05:58:08;;;;;;;7.05;3.50;;;;;;;15.95;100.00;100102.66;5000022;28;20037;-81
2023/07/05 06:00:38;;;;;;;3.78;3.45;;;;;;;16.63;100.00;100089.84;5023303;28;20065;-79
2023/07/05 06:03:05;;;;;;;4.82;3.17;;;;;;;17.44;100.00;100081.66;5032410;28;20053;-80
2023/07/05 06:05:34;;;;;;;5.22;3.00;;;;;;;18.03;100.00;100093.63;5010634;28;20049;-80
2023/07/05 06:08:02;;;;;;;5.13;2.83;;;;;;;18.23;100.00;100100.84;5020163;28;20045;-80
2023/07/05 06:10:32;;;;;;;3.63;2.83;;;;;;;18.47;100.00;100096.31;5003961;28;20058;-83
2023/07/05 06:13:00;;;;;;;3.97;3.13;;;;;;;18.50;100.00;100104.16;4998504;28;20052;-78
2023/07/05 06:15:27;;;;;;;5.78;3.05;;;;;;;18.54;100.00;100093.38;5013366;28;20045;-82
2023/07/05 06:17:54;;;;;;;4.13;3.08;;;;;;;18.45;100.00;100083.94;5022853;28;20049;-81
2023/07/05 06:20:23;;;;;;;4.68;2.97;;;;;;;18.35;100.00;100101.28;5034722;28;20045;-80
2023/07/05 06:22:52;;;;;;;4.32;3.00;;;;;;;18.22;100.00;100091.13;5030523;28;20054;-79
2023/07/05 06:25:19;;;;;;;3.40;2.85;;;;;;;18.16;100.00;100099.34;5022329;28;20068;-81
2023/07/05 06:27:46;;;;;;;3.50;2.88;;;;;;;18.16;100.00;100099.34;5013978;28;20587;-80
2023/07/05 06:30:14;;;;;;;4.32;3.17;;;;;;;18.13;100.00;100083.50;5015693;28;20068;-81
2023/07/05 06:32:42;;;;;;;3.35;2.70;;;;;;;18.10;100.00;100088.94;5006270;28;20064;-81
2023/07/05 06:35:11;;;;;;;3.83;3.00;;;;;;;18.16;100.00;100082.50;5044039;28;20064;-80
2023/07/05 06:37:39;;;;;;;3.17;2.80;;;;;;;18.20;100.00;100068.09;4986677;28;20045;-79
2023/07/05 06:40:07;;;;;;;4.65;2.85;;;;;;;18.07;100.00;100073.06;5037877;28;20041;-80
2023/07/05 06:42:35;;;;;;;4.72;2.85;;;;;;;17.85;100.00;100084.59;5006943;28;20052;-80
2023/07/05 06:45:08;;;;;;;3.60;2.75;;;;;;;17.57;100.00;100076.75;4993222;28;20056;-79
2023/07/05 06:47:37;;;;;;;4.10;2.70;;;;;;;17.28;100.00;100075.19;5047373;28;20051;-79
2023/07/05 06:50:05;;;;;;;8.05;2.85;;;;;;;17.01;100.00;100064.59;5039167;28;20048;-79
2023/07/05 06:52:33;;;;;;;5.68;3.38;;;;;;;16.91;100.00;100058.72;4996658;28;20050;-79
2023/07/05 06:55:01;;;;;;;4.32;2.80;;;;;;;16.89;100.00;100062.38;5031564;28;20057;-81
2023/07/05 06:57:29;;;;;;;5.70;2.78;;;;;;;16.80;100.00;100065.34;5013447;28;20774;-79
2023/07/05 06:59:57;;;;;;;3.90;3.00;;;;;;;16.75;100.00;100060.19;4999194;28;20052;-79
2023/07/05 07:02:25;;;;;;;3.40;2.70;;;;;;;16.67;100.00;100060.44;5043542;28;20112;-79
2023/07/05 07:04:52;;;;;;;3.30;2.60;;;;;;;16.58;100.00;100058.09;5012873;28;20052;-79
2023/07/05 07:07:20;;;;;;;3.42;2.78;;;;;;;16.46;100.00;100050.53;5021694;28;20041;-80
2023/07/05 07:09:48;;;;;;;6.97;3.10;;;;;;;16.28;100.00;100070.63;5026924;28;20049;-82
2023/07/05 07:12:17;;;;;;;3.13;2.80;;;;;;;16.11;100.00;100055.22;4989072;28;20765;-80
2023/07/05 07:14:45;;;;;;;3.97;2.53;;;;;;;15.98;100.00;100049.44;4971337;28;20073;-81
2023/07/05 07:17:12;;;;;;;4.40;2.92;;;;;;;15.98;100.00;100044.97;5014514;28;20060;-79
2023/07/05 07:19:41;;;;;;;4.32;2.70;;;;;;;16.11;100.00;100044.59;5034755;28;20087;-80
2023/07/05 07:22:14;;;;;;;3.15;2.47;;;;;;;16.20;100.00;100031.00;5033252;28;20041;-79
2023/07/05 07:24:43;;;;;;;3.13;2.40;;;;;;;16.29;100.00;100028.03;4988611;28;20056;-79
2023/07/05 07:27:10;;;;;;;3.45;2.47;;;;;;;16.34;100.00;100027.88;5043190;28;20061;-81
2023/07/05 07:29:38;;;;;;;5.25;3.13;;;;;;;16.44;100.00;100031.97;5000062;28;20061;-79
2023/07/05 07:32:07;;;;;;;5.28;2.90;;;;;;;16.48;100.00;100024.75;5014922;28;20056;-82
2023/07/05 07:34:35;;;;;;;3.10;2.83;;;;;;;16.44;100.00;100010.69;5008598;28;20049;-80
2023/07/05 07:37:03;;;;;;;4.57;2.67;;;;;;;16.43;100.00;100011.63;5034193;28;20052;-79
2023/07/05 07:39:30;;;;;;;3.03;2.72;;;;;;;16.43;100.00;100008.97;5015128;28;20052;-80
2023/07/05 07:41:59;;;;;;;4.30;2.72;;;;;;;16.44;100.00;99994.72;5015353;28;20056;-81
2023/07/05 07:44:27;;;;;;;3.75;2.70;;;;;;;16.47;100.00;99991.13;4976298;28;20048;-78
2023/07/05 07:46:54;;;;;;;3.40;2.50;;;;;;;16.44;100.00;99999.19;5008703;28;20059;-80
2023/07/05 07:49:21;;;;;;;2.15;1.95;;;;;;;16.40;100.00;99993.09;5017299;28;20041;-78
2023/07/05 07:51:50;;;;;;;3.92;2.20;;;;;;;16.38;100.00;99985.19;5010312;28;20051;-80
2023/07/05 07:54:26;;;;;;;4.13;2.88;;;;;;;16.43;100.00;99994.81;5017077;28;20049;-80
2023/07/05 07:56:55;;;;;;;2.42;2.22;;;;;;;16.51;100.00;99984.75;5009382;28;20056;-81
2023/07/05 07:59:23;;;;;;;4.05;2.72;;;;;;;16.54;100.00;99968.69;5035471;28;20044;-79
2023/07/05 08:01:51;;;;;;;3.75;2.58;;;;;;;16.50;100.00;99983.91;5001328;28;20152;-80
2023/07/05 08:04:19;;;;;;;2.58;2.38;;;;;;;16.36;100.00;99979.03;5022118;28;20060;-80
2023/07/05 08:06:49;;;;;;;4.68;2.25;;;;;;;16.23;100.00;99972.41;4984608;28;20049;-80
2023/07/05 08:09:27;;;;;;;3.38;2.65;;;;;;;16.11;100.00;99967.53;5030796;28;20047;-80
2023/07/05 08:11:57;;;;;;;3.42;2.65;;;;;;;16.04;100.00;99960.69;5033822;28;20123;-82
2023/07/05 08:14:25;;;;;;;3.92;2.80;;;;;;;15.96;100.00;99958.28;5022134;28;20506;-81
2023/07/05 08:16:53;;;;;;;3.55;2.70;;;;;;;15.80;100.00;99965.88;4985408;28;20444;-81
2023/07/05 08:19:20;;;;;;;5.93;3.00;;;;;;;15.64;100.00;99975.22;4984531;28;20053;-80
2023/07/05 08:21:49;;;;;;;7.90;2.63;;;;;;;15.33;100.00;99998.28;5021377;28;20049;-79
2023/07/05 08:24:17;;;;;;;3.50;1.17;;;;;;;14.75;100.00;99986.69;5015748;28;20045;-80
2023/07/05 08:26:49;;;;;;;2.58;0.85;;;;;;;14.23;100.00;99959.75;5034460;28;20052;-80
2023/07/05 08:29:16;;;;;;;1.35;0.93;;;;;;;13.83;100.00;99948.38;5017502;28;20041;-80
2023/07/05 08:31:46;;;;;;;0.98;0.82;;;;;;;13.60;100.00;99941.00;4982595;28;20053;-81
2023/07/05 08:34:14;;;;;;;2.20;0.95;;;;;;;13.53;100.00;99931.44;5037619;28;20051;-80
2023/07/05 08:36:42;;;;;;;1.55;1.00;;;;;;;13.53;100.00;99918.22;5035933;28;20041;-82
2023/07/05 08:39:11;;;;;;;3.10;1.25;;;;;;;13.57;100.00;99896.09;5030985;28;20049;-81
2023/07/05 08:41:43;;;;;;;0.80;0.80;;;;;;;13.58;100.00;99881.94;5025245;28;20064;-79
2023/07/05 08:44:52;;;;;;;1.42;0.90;;;;;;;13.55;100.00;99882.00;5045004;28;20049;-80
2023/07/05 08:47:27;;;;;;;0.80;0.80;;;;;;;13.51;100.00;99880.34;4992785;28;20042;-81
2023/07/05 08:50:20;;;;;;;0.90;0.90;;;;;;;13.41;100.00;99869.09;5017530;28;20057;-80
2023/07/05 08:53:27;;;;;;;2.42;1.08;;;;;;;13.30;100.00;99847.31;5031967;28;20053;-81
2023/07/05 08:56:09;;;;;;;1.00;0.90;;;;;;;13.22;100.00;99823.66;5026992;28;20057;-79
2023/07/05 08:58:46;;;;;;;0.77;0.73;;;;;;;13.15;100.00;99786.81;5029355;28;20049;-79
2023/07/05 09:01:25;;;;;;;0.82;0.77;;;;;;;13.01;100.00;99761.59;5006769;28;20519;-79
2023/07/05 09:03:52;;;;;;;1.08;0.82;;;;;;;12.87;100.00;99740.78;5016419;28;20061;-80
2023/07/05 09:06:44;;;;;;;0.80;0.77;;;;;;;12.81;100.00;99758.53;5015763;28;20048;-81
2023/07/05 09:09:40;;;;;;;1.23;0.88;;;;;;;12.70;100.00;99737.63;5034653;28;20044;-79
2023/07/05 09:12:27;;;;;;;1.77;0.85;;;;;;;12.65;100.00;99727.19;5024964;28;20049;-80
2023/07/05 09:15:08;;;;;;;0.70;0.70;;;;;;;12.61;100.00;99728.16;5036446;28;20053;-80
2023/07/05 09:17:57;;;;;;;1.33;1.00;;;;;;;12.61;100.00;99712.31;4988382;28;20056;-80
2023/07/05 09:20:27;;;;;;;1.23;0.85;;;;;;;12.60;100.00;99678.84;5022410;28;20065;-82
2023/07/05 09:22:57;;;;;;;0.60;0.60;;;;;;;12.58;100.00;99679.78;5027225;28;20084;-79
2023/07/05 09:25:30;;;;;;;0.90;0.90;;;;;;;12.53;100.00;99673.72;5038812;28;20076;-79
2023/07/05 09:28:44;;;;;;;2.38;0.70;;;;;;;12.52;100.00;99632.38;5029757;28;20057;-79
2023/07/05 09:31:14;;;;;;;1.42;0.90;;;;;;;12.48;100.00;99607.81;5040788;28;20063;-80
2023/07/05 09:33:55;;;;;;;1.77;1.30;;;;;;;12.48;100.00;99579.59;5001830;28;20056;-79
2023/07/05 09:36:26;;;;;;;1.70;1.00;;;;;;;12.44;100.00;99587.66;5001525;28;20061;-79
2023/07/05 09:39:12;;;;;;;;;;;;;;;12.41;100.00;99550.72;5017721;28;20053;-80
2023/07/05 09:41:46;;;;;;;1.83;1.10;;;;;;;12.41;100.00;99563.94;5030646;28;19921;-80
2023/07/05 09:44:17;;;;;;;2.90;1.00;;;;;;;12.44;100.00;99517.19;5029957;28;20049;-81
2023/07/05 09:46:45;;;;;;;1.52;1.02;;;;;;;12.48;100.00;99496.84;5015646;28;20057;-81
2023/07/05 09:49:16;;;;;;;3.17;1.40;;;;;;;12.53;100.00;99486.97;4997754;28;20056;-81
2023/07/05 09:51:46;;;;;;;3.10;1.00;;;;;;;12.57;100.00;99466.63;5050159;28;20049;-81
2023/07/05 09:54:33;;;;;;;4.33;1.30;;;;;;;12.61;100.00;99482.38;5041258;28;20060;-80
2023/07/05 09:57:09;;;;;;;6.55;1.23;;;;;;;12.62;100.00;99475.31;5022585;28;20045;-81
2023/07/05 09:59:37;;;;;;;5.38;2.25;;;;;;;12.65;100.00;99435.59;5039279;28;20057;-82
2023/07/05 10:02:29;;;;;;;2.30;1.27;;;;;;;12.66;100.00;99413.53;5028460;28;20049;-80
2023/07/05 10:05:14;;;;;;;2.80;1.50;;;;;;;12.66;100.00;99439.97;4989012;28;20041;-78
2023/07/05 10:07:55;;;;;;;4.47;1.75;;;;;;;12.66;100.00;99419.72;5030251;28;20372;-81
2023/07/05 10:10:40;;;;;;;4.82;1.48;;;;;;;12.68;100.00;99380.88;5024184;28;20053;-80
2023/07/05 10:13:21;;;;;;;1.65;0.82;;;;;;;12.71;100.00;99411.63;5045421;28;20048;-80
2023/07/05 10:15:51;;;;;;;4.00;1.15;;;;;;;12.75;100.00;99439.72;5040525;28;20434;-81
2023/07/05 10:18:24;;;;;;;3.85;1.25;;;;;;;12.78;100.00;99466.06;5026250;28;20040;-81
2023/07/05 10:20:53;;;;;;;3.15;1.00;;;;;;;12.82;100.00;99469.50;5003778;28;20530;-80
2023/07/05 10:23:24;;;;;;;4.68;1.00;;;;;;;12.89;100.00;99463.09;5009145;28;20049;-81
2023/07/05 10:26:00;;;;;;;3.60;0.80;;;;;;;12.93;100.00;99475.34;5008798;28;20419;-82
2023/07/05 10:28:29;;;;;;;2.58;0.80;;;;;;;12.99;100.00;99519.25;5006942;28;20052;-80
2023/07/05 10:31:00;;;;;;;3.55;0.77;;;;;;;13.04;100.00;99517.31;5029304;28;20689;-80
2023/07/05 10:33:30;;;;;;;1.48;0.50;;;;;;;13.08;100.00;99532.22;5040422;28;20057;-79
2023/07/05 10:36:06;;;;;;;0.98;0.57;;;;;;;13.12;100.00;99559.44;4974471;28;20053;-79
2023/07/05 10:38:52;;;;;;;4.05;0.77;;;;;;;13.16;100.00;99583.13;5035395;28;20057;-80
2023/07/05 10:41:20;;;;;;;2.72;0.60;;;;;;;13.20;100.00;99590.06;5029041;28;20048;-80
2023/07/05 10:43:59;;;;;;;7.82;1.80;;;;;;;13.24;100.00;99619.94;5034905;28;20052;-79
2023/07/05 10:46:27;;;;;;;4.40;0.55;;;;;;;13.29;100.00;99631.28;5019479;28;20055;-79
2023/07/05 10:48:57;;;;;;;1.63;0.93;;;;;;;13.37;100.00;99645.19;5021305;28;20052;-79
2023/07/05 10:51:28;;;;;;;1.05;0.60;;;;;;;13.51;100.00;99702.16;4992195;28;20053;-81
2023/07/05 10:54:17;;;;;;;2.42;0.75;;;;;;;13.65;100.00;99708.81;5048560;28;20392;-79
2023/07/05 10:56:47;;;;;;;0.98;0.60;;;;;;;13.90;100.00;99716.06;5045981;28;20868;-81
2023/07/05 10:59:28;;;;;;;1.63;0.57;;;;;;;14.30;100.00;99716.69;5000476;28;20279;-81
2023/07/05 11:02:27;;;;;;;1.08;0.55;;;;;;;14.64;100.00;99756.31;5024305;28;20056;-81
2023/07/05 11:04:57;;;;;;;5.07;0.60;;;;;;;14.78;100.00;99780.63;5034714;28;20057;-81
2023/07/05 11:07:27;;;;;;;1.08;0.60;;;;;;;14.95;100.00;99782.75;5015834;28;20049;-81
2023/07/05 11:09:57;;;;;;;2.63;0.50;;;;;;;15.11;100.00;99832.66;5011010;28;20056;-82
2023/07/05 11:12:29;;;;;;;3.38;0.60;;;;;;;15.06;100.00;99831.94;5036484;28;20061;-81
2023/07/05 11:14:59;;;;;;;1.98;0.50;;;;;;;15.02;100.00;99844.41;5028901;28;20057;-80
2023/07/05 11:17:36;;;;;;;2.92;0.80;;;;;;;15.01;100.00;99855.97;5034067;28;20060;-80
2023/07/05 11:20:39;;;;;;;3.55;0.95;;;;;;;15.11;100.00;99891.91;5035418;28;20045;-79
2023/07/05 11:23:09;;;;;;;3.88;1.02;;;;;;;15.19;100.00;99908.44;5002152;28;20088;-81
2023/07/05 11:25:52;;;;;;;3.93;0.57;;;;;;;15.26;100.00;99905.63;5024506;28;20069;-81
2023/07/05 11:28:40;;;;;;;2.97;0.60;;;;;;;15.45;100.00;99927.16;5020948;28;20307;-81
2023/07/05 11:31:46;;;;;;;2.28;0.60;;;;;;;15.51;100.00;99949.03;5008565;28;20497;-81
2023/07/05 11:34:20;;;;;;;2.28;0.55;;;;;;;15.65;100.00;99956.59;5035614;28;20053;-81
2023/07/05 11:36:50;;;;;;;3.05;0.55;;;;;;;15.85;100.00;99948.00;5050732;28;21013;-80
2023/07/05 11:39:34;;;;;;;1.88;0.80;;;;;;;15.93;100.00;99991.09;5008166;28;20107;-81